createdAt,value
2022-11-22T00:00:17.256Z,1.1
2022-11-22T00:01:18.175Z,1
2022-11-22T00:02:17.199Z,1.1
2022-11-22T00:03:18.158Z,1
2022-11-22T00:04:18.521Z,1.1
2022-11-22T00:05:18.166Z,1.1
2022-11-22T00:06:18.571Z,1.1
2022-11-22T00:07:18.094Z,1.1
2022-11-22T00:08:18.419Z,1.1
2022-11-22T00:09:17.865Z,1.1
2022-11-22T00:10:18.312Z,1.1
2022-11-22T00:11:18.644Z,1.1
2022-11-22T00:12:18.008Z,1
2022-11-22T00:13:18.723Z,1
2022-11-22T00:14:18.124Z,1
2022-11-22T00:15:18.540Z,1
2022-11-22T00:16:17.866Z,1
2022-11-22T00:17:18.319Z,1
2022-11-22T00:18:18.640Z,1
2022-11-22T00:19:18.061Z,1
2022-11-22T00:20:18.468Z,1
2022-11-22T00:21:17.837Z,1
2022-11-22T00:22:17.336Z,0
2022-11-22T00:23:17.158Z,1
2022-11-22T00:24:17.230Z,1
2022-11-22T00:25:18.569Z,1
2022-11-22T00:26:18.056Z,1
2022-11-22T00:27:18.603Z,1
2022-11-22T00:28:17.964Z,1
2022-11-22T00:29:18.245Z,1
2022-11-22T00:30:17.796Z,1
2022-11-22T00:31:18.082Z,1
2022-11-22T00:32:18.510Z,1
2022-11-22T00:33:18.403Z,1
2022-11-22T00:34:17.815Z,0
2022-11-22T00:35:18.299Z,0
2022-11-22T00:36:18.204Z,0
2022-11-22T00:37:18.591Z,1
2022-11-22T00:38:17.910Z,1
2022-11-22T00:39:18.292Z,1
2022-11-22T00:40:18.383Z,1
2022-11-22T00:41:17.856Z,1
2022-11-22T00:42:18.163Z,1
2022-11-22T00:43:17.838Z,0
2022-11-22T00:44:18.415Z,0
2022-11-22T00:45:17.920Z,1
2022-11-22T00:46:18.444Z,1
2022-11-22T00:47:17.883Z,1
2022-11-22T00:48:18.684Z,0.9
2022-11-22T00:49:18.547Z,1
2022-11-22T00:50:18.557Z,0.9
2022-11-22T00:51:18.124Z,0.9
2022-11-22T00:52:18.574Z,0.9
2022-11-22T00:53:18.542Z,0.9
2022-11-22T00:54:17.656Z,0.9
2022-11-22T00:55:18.029Z,0.9
2022-11-22T00:56:18.375Z,0.9
2022-11-22T00:57:18.560Z,0.9
2022-11-22T00:58:18.041Z,0.9
2022-11-22T00:59:18.388Z,0.9
2022-11-22T01:00:18.519Z,0.9
2022-11-22T01:01:18.028Z,0.8
2022-11-22T01:02:18.565Z,0.8
2022-11-22T01:03:17.899Z,0.8
2022-11-22T01:04:18.470Z,0.8
2022-11-22T01:05:17.933Z,0.8
2022-11-22T01:06:18.323Z,0.8
2022-11-22T01:07:18.855Z,0.8
2022-11-22T01:08:18.242Z,0.8
2022-11-22T01:09:18.702Z,0.8
2022-11-22T01:10:18.001Z,0.8
2022-11-22T01:11:18.416Z,0.8
2022-11-22T01:12:17.724Z,0.8
2022-11-22T01:13:18.176Z,0.8
2022-11-22T01:14:18.582Z,0.8
2022-11-22T01:15:17.280Z,0.8
2022-11-22T01:16:18.003Z,0.8
2022-11-22T01:17:18.624Z,0.8
2022-11-22T01:18:17.697Z,0.8
2022-11-22T01:19:18.461Z,0.8
2022-11-22T01:20:16.847Z,0
2022-11-22T01:21:18.484Z,0.8
2022-11-22T01:22:18.277Z,0.8
2022-11-22T01:23:17.794Z,0.8
2022-11-22T01:24:18.079Z,0.8
2022-11-22T01:25:17.802Z,0.8
2022-11-22T01:26:18.381Z,0.8
2022-11-22T01:27:18.651Z,0.8
2022-11-22T01:28:18.112Z,0.8
2022-11-22T01:29:18.250Z,0.8
2022-11-22T01:30:18.137Z,0.8
2022-11-22T01:31:17.895Z,0.8
2022-11-22T01:32:18.216Z,0.8
2022-11-22T01:33:18.275Z,0.9
2022-11-22T01:34:18.586Z,0.8
2022-11-22T01:35:18.439Z,0.9
2022-11-22T01:36:17.985Z,0.9
2022-11-22T01:37:18.270Z,0.8
2022-11-22T01:38:18.297Z,0.8
2022-11-22T01:39:17.720Z,0.9
2022-11-22T01:40:18.122Z,0.9
2022-11-22T01:41:18.295Z,0.8
2022-11-22T01:42:18.519Z,0.8
2022-11-22T01:43:18.004Z,0.8
2022-11-22T01:44:18.314Z,0.8
2022-11-22T01:45:18.759Z,0.9
2022-11-22T01:46:18.561Z,0
2022-11-22T01:47:17.832Z,0.9
2022-11-22T01:48:18.329Z,0.9
2022-11-22T01:49:18.555Z,0.9
2022-11-22T01:50:16.922Z,0.9
2022-11-22T01:51:17.972Z,0.9
2022-11-22T01:52:18.160Z,0.9
2022-11-22T01:53:17.943Z,0.9
2022-11-22T01:54:18.357Z,0.9
2022-11-22T01:55:18.504Z,0.9
2022-11-22T01:56:17.878Z,0.9
2022-11-22T01:57:18.342Z,1
2022-11-22T01:58:17.766Z,1
2022-11-22T01:59:18.501Z,1
2022-11-22T02:00:18.619Z,1
2022-11-22T02:01:18.010Z,1
2022-11-22T02:02:18.524Z,1
2022-11-22T02:03:17.835Z,1
2022-11-22T02:04:18.240Z,1
2022-11-22T02:05:18.762Z,1
2022-11-22T02:06:18.554Z,1
2022-11-22T02:07:17.949Z,1
2022-11-22T02:08:18.183Z,1
2022-11-22T02:09:18.638Z,1
2022-11-22T02:10:17.997Z,1
2022-11-22T02:11:18.391Z,1
2022-11-22T02:12:18.328Z,1
2022-11-22T02:13:16.840Z,0.9
2022-11-22T02:14:18.194Z,0.9
2022-11-22T02:15:18.635Z,0.9
2022-11-22T02:16:18.654Z,0.9
2022-11-22T02:17:18.631Z,0.9
2022-11-22T02:18:18.198Z,0.9
2022-11-22T02:19:18.633Z,0.8
2022-11-22T02:20:18.726Z,0.8
2022-11-22T02:21:18.207Z,0.8
2022-11-22T02:22:18.469Z,0.8
2022-11-22T02:23:17.814Z,0.8
2022-11-22T02:24:18.088Z,0.8
2022-11-22T02:25:18.576Z,0
2022-11-22T02:26:18.315Z,0.8
2022-11-22T02:27:18.764Z,0.8
2022-11-22T02:28:18.240Z,0.8
2022-11-22T02:29:18.504Z,0.8
2022-11-22T02:30:18.175Z,0.8
2022-11-22T02:31:18.204Z,0.8
2022-11-22T02:32:18.630Z,0.8
2022-11-22T02:33:18.007Z,0.8
2022-11-22T02:34:18.497Z,0.8
2022-11-22T02:35:17.805Z,0.8
2022-11-22T02:36:18.222Z,0.8
2022-11-22T02:37:18.195Z,0.8
2022-11-22T02:38:17.373Z,0.8
2022-11-22T02:39:18.662Z,0.8
2022-11-22T02:40:18.678Z,0.8
2022-11-22T02:41:17.990Z,0
2022-11-22T02:42:18.366Z,0.8
2022-11-22T02:43:18.521Z,0.8
2022-11-22T02:44:18.517Z,0.8
2022-11-22T02:45:18.469Z,0.8
2022-11-22T02:46:18.429Z,0.8
2022-11-22T02:47:18.339Z,0.8
2022-11-22T02:48:17.855Z,0.8
2022-11-22T02:49:18.148Z,0.8
2022-11-22T02:50:18.559Z,0.8
2022-11-22T02:51:18.274Z,0.8
2022-11-22T02:52:17.811Z,0.9
2022-11-22T02:53:18.147Z,0
2022-11-22T02:54:18.544Z,0.9
2022-11-22T02:55:17.864Z,0.9
2022-11-22T02:56:18.144Z,0.9
2022-11-22T02:57:18.302Z,1
2022-11-22T02:58:18.545Z,1
2022-11-22T02:59:17.957Z,1
2022-11-22T03:00:18.375Z,1
2022-11-22T03:01:18.592Z,1
2022-11-22T03:02:17.407Z,1
2022-11-22T03:03:17.682Z,1
2022-11-22T03:04:16.968Z,0
2022-11-22T03:05:18.607Z,1
2022-11-22T03:06:17.902Z,1.1
2022-11-22T03:07:18.359Z,1.1
2022-11-22T03:08:18.310Z,1.1
2022-11-22T03:09:18.569Z,1.1
2022-11-22T03:10:17.894Z,1.1
2022-11-22T03:11:18.337Z,1.1
2022-11-22T03:12:18.569Z,1.1
2022-11-22T03:13:18.010Z,1.1
2022-11-22T03:14:18.338Z,1.1
2022-11-22T03:15:18.326Z,1.1
2022-11-22T03:16:18.676Z,1.1
2022-11-22T03:17:18.065Z,1.2
2022-11-22T03:18:18.439Z,1.2
2022-11-22T03:19:18.150Z,1.2
2022-11-22T03:20:18.393Z,1.2
2022-11-22T03:21:18.190Z,1.2
2022-11-22T03:22:18.516Z,1.2
2022-11-22T03:23:17.871Z,1.2
2022-11-22T03:24:17.780Z,1.2
2022-11-22T03:25:18.162Z,1.2
2022-11-22T03:26:18.586Z,1.2
2022-11-22T03:27:18.668Z,1.2
2022-11-22T03:28:18.644Z,0
2022-11-22T03:29:18.563Z,0
2022-11-22T03:30:17.950Z,0
2022-11-22T03:31:18.050Z,0
2022-11-22T03:32:17.818Z,1.2
2022-11-22T03:33:18.526Z,1.2
2022-11-22T03:34:17.839Z,1.3
2022-11-22T03:35:18.652Z,1.3
2022-11-22T03:36:18.002Z,1.2
2022-11-22T03:37:18.458Z,1.2
2022-11-22T03:38:17.800Z,1.3
2022-11-22T03:39:17.822Z,1.3
2022-11-22T03:40:18.321Z,1.3
2022-11-22T03:41:18.595Z,1.3
2022-11-22T03:42:25.147Z,1.3
2022-11-22T03:43:18.267Z,1.3
2022-11-22T03:44:18.782Z,1.3
2022-11-22T03:45:18.092Z,1.3
2022-11-22T03:46:17.920Z,1.3
2022-11-22T03:47:18.425Z,1.3
2022-11-22T03:48:17.704Z,1.3
2022-11-22T03:49:16.748Z,1.3
2022-11-22T03:50:18.241Z,1.4
2022-11-22T03:51:18.307Z,1.4
2022-11-22T03:52:18.629Z,1.4
2022-11-22T03:53:17.861Z,1.4
2022-11-22T03:54:18.169Z,1.4
2022-11-22T03:55:18.761Z,1.4
2022-11-22T03:56:18.110Z,1.4
2022-11-22T03:57:18.072Z,1.4
2022-11-22T03:58:18.458Z,1.4
2022-11-22T03:59:18.556Z,1.4
2022-11-22T04:00:17.822Z,1.4
2022-11-22T04:01:21.148Z,1.4
2022-11-22T04:02:18.553Z,1.4
2022-11-22T04:03:18.603Z,1.4
2022-11-22T04:04:17.912Z,1.4
2022-11-22T04:05:18.442Z,1.5
2022-11-22T04:06:17.840Z,1.4
2022-11-22T04:07:18.465Z,1.5
2022-11-22T04:08:18.552Z,1.5
2022-11-22T04:09:18.171Z,1.5
2022-11-22T04:10:24.482Z,1.5
2022-11-22T04:11:18.216Z,1.5
2022-11-22T04:12:18.008Z,1.5
2022-11-22T04:13:18.284Z,1.5
2022-11-22T04:14:17.055Z,1.6
2022-11-22T04:15:18.201Z,1.6
2022-11-22T04:16:18.132Z,1.6
2022-11-22T04:17:18.640Z,1.6
2022-11-22T04:18:18.007Z,1.6
2022-11-22T04:19:18.518Z,1.6
2022-11-22T04:20:18.712Z,1.6
2022-11-22T04:21:18.128Z,1.6
2022-11-22T04:22:17.899Z,1.6
2022-11-22T04:23:18.353Z,1.6
2022-11-22T04:24:17.882Z,1.6
2022-11-22T04:25:18.181Z,1.6
2022-11-22T04:26:18.628Z,1
2022-11-22T04:27:17.985Z,1.6
2022-11-22T04:28:18.395Z,1
2022-11-22T04:29:18.137Z,1.6
2022-11-22T04:30:24.437Z,1
2022-11-22T04:31:17.862Z,1.6
2022-11-22T04:32:18.264Z,1.6
2022-11-22T04:33:18.560Z,1
2022-11-22T04:34:18.564Z,1.6
2022-11-22T04:35:18.075Z,1.6
2022-11-22T04:36:18.104Z,1.6
2022-11-22T04:37:18.235Z,1.6
2022-11-22T04:38:18.220Z,1
2022-11-22T04:39:18.535Z,1
2022-11-22T04:40:18.009Z,1
2022-11-22T04:41:17.952Z,1.6
2022-11-22T04:42:17.812Z,1.6
2022-11-22T04:43:18.141Z,1.6
2022-11-22T04:44:18.382Z,1.6
2022-11-22T04:45:18.704Z,1.6
2022-11-22T04:46:18.083Z,1.6
2022-11-22T04:47:18.465Z,1.6
2022-11-22T04:48:17.938Z,1.6
2022-11-22T04:49:18.450Z,1.6
2022-11-22T04:50:18.705Z,1.6
2022-11-22T04:51:18.115Z,1.6
2022-11-22T04:52:17.930Z,1.6
2022-11-22T04:53:18.244Z,1
2022-11-22T04:54:18.662Z,1.6
2022-11-22T04:55:17.840Z,1.6
2022-11-22T04:56:18.333Z,1.6
2022-11-22T04:57:18.604Z,1.6
2022-11-22T04:58:17.790Z,1
2022-11-22T04:59:17.746Z,1.6
2022-11-22T05:00:18.153Z,1.6
2022-11-22T05:01:18.455Z,1.6
2022-11-22T05:02:18.613Z,1
2022-11-22T05:03:18.048Z,1.6
2022-11-22T05:04:18.465Z,1.6
2022-11-22T05:05:18.453Z,1.6
2022-11-22T05:06:17.901Z,1.6
2022-11-22T05:07:18.584Z,1.6
2022-11-22T05:08:18.854Z,1.6
2022-11-22T05:09:18.229Z,1.6
2022-11-22T05:10:25.998Z,1.6
2022-11-22T05:11:17.947Z,1.6
2022-11-22T05:12:18.466Z,1.6
2022-11-22T05:13:17.878Z,1.5
2022-11-22T05:14:18.313Z,1.5
2022-11-22T05:15:18.693Z,1.6
2022-11-22T05:16:18.100Z,1.5
2022-11-22T05:17:18.446Z,1.6
2022-11-22T05:18:17.946Z,1.6
2022-11-22T05:19:17.866Z,1.6
2022-11-22T05:20:17.603Z,1.5
2022-11-22T05:21:18.065Z,1.6
2022-11-22T05:22:17.753Z,1.6
2022-11-22T05:23:17.652Z,1.5
2022-11-22T05:24:18.050Z,1.5
2022-11-22T05:25:24.115Z,1.6
2022-11-22T05:26:18.096Z,1.5
2022-11-22T05:27:18.566Z,1.5
2022-11-22T05:28:18.622Z,1.5
2022-11-22T05:29:18.022Z,1.6
2022-11-22T05:30:18.890Z,1.6
2022-11-22T05:31:18.632Z,1.6
2022-11-22T05:32:17.919Z,1.6
2022-11-22T05:33:18.676Z,1
2022-11-22T05:34:18.147Z,1.6
2022-11-22T05:35:17.830Z,1.6
2022-11-22T05:36:18.102Z,1.6
2022-11-22T05:37:18.034Z,1.6
2022-11-22T05:38:18.374Z,1.6
2022-11-22T05:39:18.519Z,1.6
2022-11-22T05:40:17.811Z,1.6
2022-11-22T05:41:18.245Z,1.6
2022-11-22T05:42:18.656Z,1.6
2022-11-22T05:43:18.580Z,1.6
2022-11-22T05:44:18.015Z,1.6
2022-11-22T05:45:18.393Z,1.6
2022-11-22T05:46:24.171Z,1.6
2022-11-22T05:47:18.171Z,1.6
2022-11-22T05:48:18.036Z,1.6
2022-11-22T05:49:18.480Z,1
2022-11-22T05:50:17.763Z,1.6
2022-11-22T05:51:17.415Z,1.6
2022-11-22T05:52:18.802Z,1.7
2022-11-22T05:53:17.766Z,1.6
2022-11-22T05:54:18.225Z,1.7
2022-11-22T05:55:17.893Z,1.7
2022-11-22T05:56:18.155Z,1.7
2022-11-22T05:57:18.436Z,1.7
2022-11-22T05:58:18.799Z,1.7
2022-11-22T05:59:18.640Z,1.7
2022-11-22T06:00:18.164Z,1.7
2022-11-22T06:01:18.040Z,1.7
2022-11-22T06:02:18.846Z,1
2022-11-22T06:03:17.842Z,1
2022-11-22T06:04:18.242Z,1.7
2022-11-22T06:05:18.515Z,1.7
2022-11-22T06:06:17.946Z,1
2022-11-22T06:07:17.944Z,1
2022-11-22T06:08:18.149Z,1.7
2022-11-22T06:09:18.656Z,1.7
2022-11-22T06:10:18.031Z,1.7
2022-11-22T06:11:18.549Z,1.7
2022-11-22T06:12:18.032Z,1
2022-11-22T06:13:17.979Z,1.7
2022-11-22T06:14:18.397Z,1.7
2022-11-22T06:15:18.754Z,1.7
2022-11-22T06:16:18.293Z,1
2022-11-22T06:17:18.481Z,1.7
2022-11-22T06:18:17.887Z,1.7
2022-11-22T06:19:17.748Z,1.7
2022-11-22T06:20:18.816Z,1.8
2022-11-22T06:21:18.417Z,1.7
2022-11-22T06:22:18.959Z,1.7
2022-11-22T06:23:17.843Z,1.7
2022-11-22T06:24:17.787Z,1
2022-11-22T06:25:18.675Z,1.7
2022-11-22T06:26:18.022Z,1.8
2022-11-22T06:27:18.514Z,1.8
2022-11-22T06:28:17.859Z,1.8
2022-11-22T06:29:18.233Z,1.8
2022-11-22T06:30:18.763Z,1.7
2022-11-22T06:31:18.227Z,1.8
2022-11-22T06:32:18.576Z,1.8
2022-11-22T06:33:18.032Z,1.8
2022-11-22T06:34:18.338Z,1.8
2022-11-22T06:35:18.286Z,1.8
2022-11-22T06:36:18.784Z,1.8
2022-11-22T06:37:18.117Z,1.8
2022-11-22T06:38:18.535Z,1.8
2022-11-22T06:39:17.798Z,1.8
2022-11-22T06:40:18.212Z,1.8
2022-11-22T06:41:18.188Z,1.8
2022-11-22T06:42:17.975Z,1.8
2022-11-22T06:43:17.990Z,1.8
2022-11-22T06:44:18.079Z,1.8
2022-11-22T06:45:17.590Z,1.8
2022-11-22T06:46:17.992Z,1.8
2022-11-22T06:47:18.342Z,1.8
2022-11-22T06:48:17.969Z,1.8
2022-11-22T06:49:18.392Z,1.9
2022-11-22T06:50:24.073Z,1.9
2022-11-22T06:51:18.094Z,1.9
2022-11-22T06:52:18.579Z,1.9
2022-11-22T06:53:51.669Z,1.9
2022-11-22T06:54:18.754Z,1.9
2022-11-22T06:55:58.276Z,1.9
2022-11-22T06:57:18.373Z,1.9
2022-11-22T06:58:18.799Z,1.9
2022-11-22T06:59:18.554Z,1.9
2022-11-22T07:00:17.886Z,2
2022-11-22T07:01:18.011Z,2
2022-11-22T07:02:18.621Z,2
2022-11-22T07:03:17.999Z,2
2022-11-22T07:04:18.100Z,2
2022-11-22T07:05:34.014Z,2
2022-11-22T07:06:18.248Z,2
2022-11-22T07:07:18.240Z,2
2022-11-22T07:08:18.593Z,2
2022-11-22T07:09:16.964Z,2
2022-11-22T07:10:18.010Z,2
2022-11-22T07:11:17.185Z,2
2022-11-22T07:12:18.137Z,2
2022-11-22T07:13:17.984Z,2.1
2022-11-22T07:14:18.546Z,2
2022-11-22T07:15:17.961Z,2
2022-11-22T07:16:18.736Z,2.1
2022-11-22T07:17:17.965Z,2.1
2022-11-22T07:18:18.052Z,2.1
2022-11-22T07:19:17.767Z,2.1
2022-11-22T07:20:18.429Z,2.1
2022-11-22T07:21:18.822Z,2.1
2022-11-22T07:22:18.042Z,2.1
2022-11-22T07:23:17.984Z,2.1
2022-11-22T07:24:18.718Z,2.2
2022-11-22T07:25:18.263Z,2.2
2022-11-22T07:26:18.774Z,2.2
2022-11-22T07:27:17.990Z,2.1
2022-11-22T07:28:18.627Z,2.2
2022-11-22T07:29:17.990Z,2.2
2022-11-22T07:30:18.854Z,2.2
2022-11-22T07:31:18.312Z,1
2022-11-22T07:32:18.716Z,2.2
2022-11-22T07:33:18.128Z,2.2
2022-11-22T07:34:18.344Z,2
2022-11-22T07:35:17.447Z,2
2022-11-22T07:36:18.232Z,2.3
2022-11-22T07:37:18.596Z,2.3
2022-11-22T07:38:18.017Z,2.3
2022-11-22T07:39:18.704Z,2
2022-11-22T07:40:18.287Z,2.4
2022-11-22T07:41:18.788Z,2.4
2022-11-22T07:42:21.180Z,2.4
2022-11-22T07:43:18.428Z,2.4
2022-11-22T07:44:18.717Z,2.4
2022-11-22T07:45:18.190Z,2.4
2022-11-22T07:46:18.355Z,2.4
2022-11-22T07:47:25.327Z,2.4
2022-11-22T07:48:18.201Z,2.4
2022-11-22T07:49:18.591Z,2.5
2022-11-22T07:50:17.850Z,2.5
2022-11-22T07:51:18.320Z,2.4
2022-11-22T07:52:18.163Z,2.4
2022-11-22T07:53:18.543Z,2.4
2022-11-22T07:54:17.881Z,2.4
2022-11-22T07:55:18.694Z,2.5
2022-11-22T07:56:17.972Z,2.6
2022-11-22T07:57:18.444Z,2.5
2022-11-22T07:58:17.706Z,2.5
2022-11-22T07:59:18.153Z,2.5
2022-11-22T08:00:17.848Z,2.6
2022-11-22T08:01:18.358Z,2.6
2022-11-22T08:02:18.591Z,2.6
2022-11-22T08:03:29.281Z,2.6
2022-11-22T08:04:18.404Z,2.6
2022-11-22T08:05:18.790Z,2.6
2022-11-22T08:06:18.901Z,2.6
2022-11-22T08:07:17.286Z,2.6
2022-11-22T08:08:18.663Z,2.7
2022-11-22T08:09:18.222Z,2.6
2022-11-22T08:10:17.389Z,2.6
2022-11-22T08:11:17.923Z,2.7
2022-11-22T08:12:18.071Z,2.6
2022-11-22T08:13:18.198Z,2.7
2022-11-22T08:14:18.621Z,2.7
2022-11-22T08:15:18.027Z,2.7
2022-11-22T08:16:17.902Z,2.7
2022-11-22T08:17:18.383Z,2.7
2022-11-22T08:18:17.993Z,2.7
2022-11-22T08:19:18.469Z,2.8
2022-11-22T08:20:18.481Z,2.8
2022-11-22T08:21:17.980Z,2.8
2022-11-22T08:22:18.270Z,2.8
2022-11-22T08:23:18.796Z,2.8
2022-11-22T08:24:18.018Z,2.8
2022-11-22T08:25:18.566Z,2.8
2022-11-22T08:26:18.860Z,2.8
2022-11-22T08:27:18.175Z,2.8
2022-11-22T08:28:18.644Z,2.8
2022-11-22T08:29:18.806Z,2.8
2022-11-22T08:30:17.436Z,2.8
2022-11-22T08:31:16.951Z,2.8
2022-11-22T08:32:16.984Z,2.9
2022-11-22T08:33:17.374Z,2
2022-11-22T08:34:18.808Z,2.9
2022-11-22T08:35:18.299Z,2.8
2022-11-22T08:36:18.585Z,2.8
2022-11-22T08:37:17.942Z,2.8
2022-11-22T08:38:18.239Z,2.9
2022-11-22T08:39:18.644Z,2.9
2022-11-22T08:40:17.956Z,2.9
2022-11-22T08:41:18.440Z,3
2022-11-22T08:42:18.663Z,3
2022-11-22T08:43:18.193Z,3
2022-11-22T08:44:18.534Z,2
2022-11-22T08:45:17.985Z,2
2022-11-22T08:46:17.990Z,3
2022-11-22T08:47:18.575Z,3
2022-11-22T08:48:26.019Z,3
2022-11-22T08:49:18.162Z,3.1
2022-11-22T08:50:18.619Z,3.1
2022-11-22T08:51:18.038Z,3
2022-11-22T08:52:18.397Z,3.1
2022-11-22T08:53:18.871Z,3.1
2022-11-22T08:54:18.155Z,3.1
2022-11-22T08:55:18.514Z,3.2
2022-11-22T08:56:17.788Z,3.2
2022-11-22T08:57:18.527Z,3.2
2022-11-22T08:58:18.137Z,3.2
2022-11-22T08:59:18.810Z,3.2
2022-11-22T09:00:18.221Z,3.2
2022-11-22T09:01:18.734Z,3.2
2022-11-22T09:02:18.695Z,3.2
2022-11-22T09:03:18.115Z,3.3
2022-11-22T09:04:18.033Z,3.3
2022-11-22T09:05:18.644Z,3.2
2022-11-22T09:09:48.532Z,3
2022-11-22T09:10:18.402Z,3
2022-11-22T09:11:17.909Z,3.3
2022-11-22T09:12:18.326Z,3.3
2022-11-22T09:13:18.760Z,3.3
2022-11-22T09:14:18.086Z,3.4
2022-11-22T09:15:18.567Z,3.4
2022-11-22T09:16:18.838Z,3.4
2022-11-22T09:17:22.074Z,3.4
2022-11-22T09:18:18.433Z,3.5
2022-11-22T09:19:17.930Z,3.4
2022-11-22T09:20:18.415Z,3.5
2022-11-22T09:21:18.801Z,3.5
2022-11-22T09:22:18.287Z,3
2022-11-22T09:23:18.557Z,3.5
2022-11-22T09:24:18.043Z,3.5
2022-11-22T09:25:17.199Z,3.5
2022-11-22T09:26:18.525Z,3.6
2022-11-22T09:27:18.013Z,3.6
2022-11-22T09:28:18.329Z,3
2022-11-22T09:29:18.827Z,3.6
2022-11-22T09:30:18.097Z,3.6
2022-11-22T09:31:18.695Z,3.6
2022-11-22T09:32:18.110Z,3.6
2022-11-22T09:33:18.391Z,3
2022-11-22T09:34:17.809Z,3.6
2022-11-22T09:35:18.218Z,3.7
2022-11-22T09:36:18.546Z,3.7
2022-11-22T09:37:17.937Z,3.7
2022-11-22T09:38:18.388Z,3.8
2022-11-22T09:39:18.597Z,3.8
2022-11-22T09:40:17.954Z,3.8
2022-11-22T09:41:18.376Z,3.8
2022-11-22T09:42:18.729Z,3.8
2022-11-22T09:43:18.545Z,3.9
2022-11-22T09:44:17.964Z,3.9
2022-11-22T09:45:18.576Z,3.9
2022-11-22T09:46:18.120Z,4
2022-11-22T09:47:18.598Z,4
2022-11-22T09:48:17.877Z,4
2022-11-22T09:49:18.306Z,4.1
2022-11-22T09:50:18.589Z,4.1
2022-11-22T09:51:17.998Z,4.1
2022-11-22T09:52:18.401Z,4.2
2022-11-22T09:53:18.733Z,4.2
2022-11-22T09:54:18.374Z,4.2
2022-11-22T09:55:22.819Z,4.2
2022-11-22T09:56:17.969Z,4.3
2022-11-22T09:57:18.366Z,4.3
2022-11-22T09:58:18.817Z,4.4
2022-11-22T09:59:18.228Z,4.4
2022-11-22T10:00:18.801Z,4.5
2022-11-22T10:01:18.385Z,4.5
2022-11-22T10:02:23.011Z,4.5
2022-11-22T10:03:17.864Z,4.5
2022-11-22T10:04:18.311Z,4.6
2022-11-22T10:05:18.648Z,4.6
2022-11-22T10:06:17.967Z,4.6
2022-11-22T10:07:18.893Z,4.7
2022-11-22T10:08:17.995Z,4.8
2022-11-22T10:09:17.980Z,4.8
2022-11-22T10:10:18.537Z,4.8
2022-11-22T10:11:17.989Z,4.9
2022-11-22T10:12:18.291Z,4.9
2022-11-22T10:13:18.609Z,4.9
2022-11-22T10:14:17.967Z,4.9
2022-11-22T10:15:18.528Z,4.9
2022-11-22T10:16:18.013Z,5
2022-11-22T10:17:18.658Z,5
2022-11-22T10:18:17.858Z,5
2022-11-22T10:19:18.433Z,5
2022-11-22T10:20:18.813Z,5.1
2022-11-22T10:21:18.125Z,5.1
2022-11-22T10:22:18.578Z,5.2
2022-11-22T10:23:18.235Z,5.2
2022-11-22T10:24:18.601Z,5.2
2022-11-22T10:25:18.203Z,5.2
2022-11-22T10:26:18.670Z,5.2
2022-11-22T10:27:17.827Z,5.2
2022-11-22T10:28:18.248Z,5.4
2022-11-22T10:29:18.592Z,5.4
2022-11-22T10:30:18.139Z,5.4
2022-11-22T10:31:18.520Z,5.4
2022-11-22T10:32:18.883Z,5.4
2022-11-22T10:33:18.345Z,5.6
2022-11-22T10:34:18.617Z,5.6
2022-11-22T10:35:18.070Z,5.6
2022-11-22T10:36:18.599Z,5.6
2022-11-22T10:37:18.831Z,5.6
2022-11-22T10:38:18.235Z,5.7
2022-11-22T10:39:18.596Z,5.6
2022-11-22T10:40:17.957Z,5.8
2022-11-22T10:41:18.281Z,5.8
2022-11-22T10:42:18.823Z,5.8
2022-11-22T10:43:18.124Z,5.7
2022-11-22T10:44:18.286Z,5
2022-11-22T10:45:18.870Z,5
2022-11-22T10:46:18.314Z,5.9
2022-11-22T10:47:16.940Z,5.9
2022-11-22T10:48:18.474Z,5.9
2022-11-22T10:49:18.959Z,5.9
2022-11-22T10:50:18.145Z,6
2022-11-22T10:51:18.645Z,6
2022-11-22T10:52:18.015Z,6
2022-11-22T10:53:18.529Z,6
2022-11-22T10:54:17.917Z,6
2022-11-22T10:55:18.861Z,6
2022-11-22T10:56:18.345Z,6
2022-11-22T10:57:18.732Z,6
2022-11-22T10:58:18.183Z,6
2022-11-22T10:59:18.137Z,6.1
2022-11-22T11:00:18.606Z,6.2
2022-11-22T11:01:19.056Z,6.2
2022-11-22T11:02:18.152Z,5
2022-11-22T11:03:18.766Z,6
2022-11-22T11:04:18.263Z,6.2
2022-11-22T11:05:18.675Z,6.2
2022-11-22T11:07:17.932Z,6.4
2022-11-22T11:07:18.483Z,6.3
2022-11-22T11:10:27.760Z,6.4
2022-11-22T11:10:34.853Z,6.4
2022-11-22T11:11:18.455Z,6
2022-11-22T11:12:18.705Z,6.4
2022-11-22T11:13:17.827Z,6.4
2022-11-22T11:14:17.855Z,6.5
2022-11-22T11:15:17.865Z,6.5
2022-11-22T11:16:18.675Z,6.4
2022-11-22T11:17:18.017Z,6.5
2022-11-22T11:18:18.281Z,6.5
2022-11-22T11:19:18.653Z,6.5
2022-11-22T11:20:18.726Z,6.6
2022-11-22T11:21:18.109Z,6.6
2022-11-22T11:22:31.783Z,6.6
2022-11-22T11:23:20.248Z,6.6
2022-11-22T11:24:18.774Z,6.6
2022-11-22T11:25:18.195Z,6.6
2022-11-22T11:26:18.636Z,6.6
2022-11-22T11:27:17.959Z,6.7
2022-11-22T11:28:18.525Z,6.7
2022-11-22T11:29:17.962Z,6.7
2022-11-22T11:30:18.347Z,6.7
2022-11-22T11:31:18.841Z,6.8
2022-11-22T11:32:18.505Z,6.9
2022-11-22T11:33:18.780Z,6.8
2022-11-22T11:34:18.364Z,6.8
2022-11-22T11:35:18.783Z,6.9
2022-11-22T11:36:18.781Z,6.9
2022-11-22T11:37:18.377Z,7
2022-11-22T11:38:18.573Z,7
2022-11-22T11:39:18.018Z,7.1
2022-11-22T11:40:18.638Z,7.1
2022-11-22T11:41:17.641Z,7.1
2022-11-22T11:42:18.569Z,7
2022-11-22T11:43:17.716Z,7.1
2022-11-22T11:44:18.241Z,7.1
2022-11-22T11:45:18.628Z,7.1
2022-11-22T11:46:18.354Z,7.1
2022-11-22T11:47:18.819Z,7.1
2022-11-22T11:48:18.042Z,7.2
2022-11-22T11:49:18.583Z,7.2
2022-11-22T11:50:25.853Z,7.2
2022-11-22T11:51:18.574Z,7.1
2022-11-22T11:52:18.563Z,7.1
2022-11-22T11:53:17.896Z,7
2022-11-22T11:54:18.353Z,7
2022-11-22T11:55:18.706Z,7.2
2022-11-22T11:56:18.779Z,7.2
2022-11-22T11:57:18.113Z,7.2
2022-11-22T11:58:21.778Z,7
2022-11-22T11:59:18.297Z,7.2
2022-11-22T12:00:18.667Z,7.3
2022-11-22T12:01:18.770Z,7.2
2022-11-22T12:02:18.617Z,7.2
2022-11-22T12:03:18.665Z,7.2
2022-11-22T12:04:17.849Z,7.2
2022-11-22T12:05:17.315Z,7.3
2022-11-22T12:06:17.680Z,7.2
2022-11-22T12:07:18.239Z,7.3
2022-11-22T12:08:18.660Z,7.3
2022-11-22T12:09:18.276Z,7.3
2022-11-22T12:10:17.963Z,7.3
2022-11-22T12:11:18.340Z,7.3
2022-11-22T12:12:18.747Z,7.3
2022-11-22T12:13:18.110Z,7.3
2022-11-22T12:14:26.100Z,7
2022-11-22T12:15:18.988Z,7.3
2022-11-22T12:16:18.299Z,7.3
2022-11-22T12:17:18.648Z,7.3
2022-11-22T12:18:18.412Z,7.3
2022-11-22T12:19:25.098Z,7.3
2022-11-22T12:20:18.424Z,7.3
2022-11-22T12:21:17.949Z,7.3
2022-11-22T12:22:55.263Z,7.3
2022-11-22T12:23:18.059Z,7.4
2022-11-22T12:25:37.796Z,7.3
2022-11-22T12:26:18.002Z,7.3
2022-11-22T12:27:18.345Z,7.3
2022-11-22T12:28:18.901Z,7.3
2022-11-22T12:29:17.354Z,7.3
2022-11-22T12:30:18.026Z,7.3
2022-11-22T12:32:18.340Z,7.3
2022-11-22T12:33:18.807Z,7.3
2022-11-22T12:34:18.354Z,7.3
2022-11-22T12:35:18.678Z,7.3
2022-11-22T12:36:17.956Z,7.3
2022-11-22T12:37:18.385Z,7.3
2022-11-22T12:38:18.729Z,7.3
2022-11-22T12:39:18.244Z,7.3
2022-11-22T12:40:18.625Z,7.3
2022-11-22T12:41:18.147Z,7.3
2022-11-22T12:42:25.545Z,7.3
2022-11-22T12:43:18.026Z,7.4
2022-11-22T12:44:18.385Z,7.3
2022-11-22T12:45:18.749Z,7.3
2022-11-22T12:46:18.502Z,7.3
2022-11-22T12:47:18.987Z,7.3
2022-11-22T12:48:18.262Z,7.3
2022-11-22T12:48:34.920Z,7
2022-11-22T12:49:18.528Z,7.3
2022-11-22T12:50:18.058Z,7.3
2022-11-22T12:51:18.644Z,7.2
2022-11-22T12:52:18.433Z,7
2022-11-22T12:53:17.103Z,7
2022-11-22T12:54:18.409Z,7.2
2022-11-22T12:55:18.668Z,7
2022-11-22T12:56:18.585Z,7.2
2022-11-22T12:57:18.100Z,7.2
2022-11-22T12:58:18.282Z,7.2
2022-11-22T12:59:18.653Z,7.2
2022-11-22T13:00:18.371Z,7.2
2022-11-22T13:01:18.687Z,7.2
2022-11-22T13:02:18.724Z,7.2
2022-11-22T13:03:17.981Z,7.2
2022-11-22T13:04:18.420Z,7.2
2022-11-22T13:05:18.804Z,7.2
2022-11-22T13:06:18.620Z,7.2
2022-11-22T13:07:18.118Z,7.2
2022-11-22T13:08:18.227Z,7.2
2022-11-22T13:09:18.779Z,7.1
2022-11-22T13:10:18.160Z,7.2
2022-11-22T13:11:18.558Z,7
2022-11-22T13:12:18.614Z,7.2
2022-11-22T13:13:18.261Z,7.2
2022-11-22T13:14:24.686Z,7.2
2022-11-22T13:15:18.167Z,7
2022-11-22T13:16:18.514Z,7.3
2022-11-22T13:17:18.092Z,7.3
2022-11-22T13:18:18.335Z,7.3
2022-11-22T13:19:18.403Z,7.3
2022-11-22T13:20:19.174Z,7.3
2022-11-22T13:21:17.968Z,7.3
2022-11-22T13:22:18.190Z,7.3
2022-11-22T13:23:18.625Z,7.4
2022-11-22T13:24:18.303Z,7.4
2022-11-22T13:25:18.748Z,7.3
2022-11-22T13:26:19.378Z,7.3
2022-11-22T13:27:18.609Z,7.3
2022-11-22T13:28:17.890Z,7.3
2022-11-22T13:29:18.481Z,7.3
2022-11-22T13:30:18.226Z,7.3
2022-11-22T13:31:18.774Z,7.3
2022-11-22T13:32:18.079Z,7.3
2022-11-22T13:33:18.479Z,7.3
2022-11-22T13:34:18.900Z,7
2022-11-22T13:35:18.276Z,7.3
2022-11-22T13:36:18.121Z,7.3
2022-11-22T13:37:18.554Z,7.3
2022-11-22T13:38:18.057Z,7.3
2022-11-22T13:39:18.722Z,7.2
2022-11-22T13:40:17.820Z,7.3
2022-11-22T13:41:17.116Z,7.2
2022-11-22T13:42:18.184Z,7
2022-11-22T13:43:25.542Z,7
2022-11-22T13:44:18.854Z,7.2
2022-11-22T13:45:18.649Z,7.2
2022-11-22T13:46:18.799Z,7.2
2022-11-22T13:47:18.548Z,7.2
2022-11-22T13:48:18.415Z,7.2
2022-11-22T13:49:18.275Z,7.2
2022-11-22T13:50:18.805Z,7.2
2022-11-22T13:51:18.688Z,7
2022-11-22T13:52:18.075Z,7.2
2022-11-22T13:53:18.491Z,7.2
2022-11-22T13:54:19.176Z,7.2
2022-11-22T13:55:19.681Z,7.2
2022-11-22T13:56:18.625Z,7.2
2022-11-22T13:57:18.244Z,7.2
2022-11-22T13:58:18.607Z,7.2
2022-11-22T13:59:18.042Z,7.2
2022-11-22T14:00:18.461Z,7.2
2022-11-22T14:01:18.199Z,7.2
2022-11-22T14:02:18.345Z,7.2
2022-11-22T14:03:18.309Z,7.2